sensor_id;sensor_type;location;lat;lon;timestamp;P1;durP1;ratioP1;P2;durP2;ratioP2
59388;SDS011;51830;45.202;19.720;2023-01-30T00:00:34;8.82;;;2.80;;
59388;SDS011;51830;45.202;19.720;2023-01-30T00:03:01;11.75;;;3.13;;
59388;SDS011;51830;45.202;19.720;2023-01-30T00:05:27;13.10;;;4.72;;
59388;SDS011;51830;45.202;19.720;2023-01-30T00:07:53;9.48;;;3.00;;
59388;SDS011;51830;45.202;19.720;2023-01-30T00:10:19;3.70;;;1.83;;
59388;SDS011;51830;45.202;19.720;2023-01-30T00:12:45;8.57;;;3.22;;
59388;SDS011;51830;45.202;19.720;2023-01-30T00:15:11;9.50;;;3.38;;
59388;SDS011;51830;45.202;19.720;2023-01-30T00:17:37;9.48;;;3.08;;
59388;SDS011;51830;45.202;19.720;2023-01-30T00:20:04;11.35;;;3.65;;
59388;SDS011;51830;45.202;19.720;2023-01-30T00:22:30;8.52;;;3.00;;
59388;SDS011;51830;45.202;19.720;2023-01-30T00:24:56;13.70;;;4.07;;
59388;SDS011;51830;45.202;19.720;2023-01-30T00:27:22;12.50;;;3.75;;
59388;SDS011;51830;45.202;19.720;2023-01-30T00:29:48;11.90;;;3.63;;
59388;SDS011;51830;45.202;19.720;2023-01-30T00:32:14;5.20;;;2.33;;
59388;SDS011;51830;45.202;19.720;2023-01-30T00:34:40;8.55;;;2.70;;
59388;SDS011;51830;45.202;19.720;2023-01-30T00:37:07;9.18;;;3.15;;
59388;SDS011;51830;45.202;19.720;2023-01-30T00:39:33;6.45;;;2.45;;
59388;SDS011;51830;45.202;19.720;2023-01-30T00:41:59;8.27;;;2.65;;
59388;SDS011;51830;45.202;19.720;2023-01-30T00:44:43;5.63;;;1.80;;
59388;SDS011;51830;45.202;19.720;2023-01-30T00:47:28;11.13;;;3.50;;
59388;SDS011;51830;45.202;19.720;2023-01-30T00:49:54;14.68;;;3.20;;
59388;SDS011;51830;45.202;19.720;2023-01-30T00:52:20;11.43;;;2.97;;
59388;SDS011;51830;45.202;19.720;2023-01-30T00:54:46;7.47;;;2.60;;
59388;SDS011;51830;45.202;19.720;2023-01-30T00:57:15;9.68;;;2.58;;
59388;SDS011;51830;45.202;19.720;2023-01-30T00:59:41;5.57;;;2.25;;
59388;SDS011;51830;45.202;19.720;2023-01-30T01:02:07;12.52;;;3.78;;
59388;SDS011;51830;45.202;19.720;2023-01-30T01:04:33;4.22;;;2.15;;
59388;SDS011;51830;45.202;19.720;2023-01-30T01:07:08;6.32;;;2.45;;
59388;SDS011;51830;45.202;19.720;2023-01-30T01:09:34;5.93;;;2.10;;
59388;SDS011;51830;45.202;19.720;2023-01-30T01:12:00;5.72;;;2.50;;
59388;SDS011;51830;45.202;19.720;2023-01-30T01:14:26;8.38;;;3.20;;
59388;SDS011;51830;45.202;19.720;2023-01-30T01:16:52;10.07;;;3.60;;
59388;SDS011;51830;45.202;19.720;2023-01-30T01:19:18;12.75;;;3.88;;
59388;SDS011;51830;45.202;19.720;2023-01-30T01:21:44;7.53;;;2.63;;
59388;SDS011;51830;45.202;19.720;2023-01-30T01:24:11;8.05;;;2.88;;
59388;SDS011;51830;45.202;19.720;2023-01-30T01:26:38;8.43;;;3.20;;
59388;SDS011;51830;45.202;19.720;2023-01-30T01:29:06;6.57;;;2.40;;
59388;SDS011;51830;45.202;19.720;2023-01-30T01:31:32;12.32;;;3.70;;
59388;SDS011;51830;45.202;19.720;2023-01-30T01:33:58;7.55;;;2.22;;
59388;SDS011;51830;45.202;19.720;2023-01-30T01:36:24;10.77;;;3.55;;
59388;SDS011;51830;45.202;19.720;2023-01-30T01:38:50;11.13;;;3.85;;
59388;SDS011;51830;45.202;19.720;2023-01-30T01:41:17;8.52;;;3.05;;
59388;SDS011;51830;45.202;19.720;2023-01-30T01:48:57;9.93;;;3.38;;
59388;SDS011;51830;45.202;19.720;2023-01-30T01:51:36;8.75;;;3.00;;
59388;SDS011;51830;45.202;19.720;2023-01-30T01:54:16;9.98;;;2.95;;
59388;SDS011;51830;45.202;19.720;2023-01-30T01:56:44;7.20;;;2.47;;
59388;SDS011;51830;45.202;19.720;2023-01-30T01:59:22;12.68;;;4.30;;
59388;SDS011;51830;45.202;19.720;2023-01-30T02:01:51;6.32;;;2.72;;
59388;SDS011;51830;45.202;19.720;2023-01-30T02:04:18;9.30;;;3.65;;
59388;SDS011;51830;45.202;19.720;2023-01-30T02:07:04;12.52;;;2.85;;
59388;SDS011;51830;45.202;19.720;2023-01-30T02:09:30;9.82;;;3.28;;
59388;SDS011;51830;45.202;19.720;2023-01-30T02:11:57;8.50;;;3.05;;
59388;SDS011;51830;45.202;19.720;2023-01-30T02:14:25;11.05;;;3.10;;
59388;SDS011;51830;45.202;19.720;2023-01-30T02:16:52;9.55;;;3.47;;
59388;SDS011;51830;45.202;19.720;2023-01-30T02:19:36;10.52;;;3.10;;
59388;SDS011;51830;45.202;19.720;2023-01-30T02:24:44;9.45;;;2.72;;
59388;SDS011;51830;45.202;19.720;2023-01-30T02:27:24;6.97;;;2.57;;
59388;SDS011;51830;45.202;19.720;2023-01-30T02:32:44;8.45;;;2.88;;
59388;SDS011;51830;45.202;19.720;2023-01-30T02:43:42;10.40;;;3.65;;
59388;SDS011;51830;45.202;19.720;2023-01-30T02:46:31;14.82;;;3.55;;
59388;SDS011;51830;45.202;19.720;2023-01-30T02:49:03;10.70;;;3.95;;
59388;SDS011;51830;45.202;19.720;2023-01-30T02:51:33;10.35;;;4.22;;
59388;SDS011;51830;45.202;19.720;2023-01-30T02:54:00;12.75;;;3.20;;
59388;SDS011;51830;45.202;19.720;2023-01-30T02:56:26;9.68;;;4.22;;
59388;SDS011;51830;45.202;19.720;2023-01-30T02:58:53;5.30;;;2.60;;
59388;SDS011;51830;45.202;19.720;2023-01-30T03:04:25;9.10;;;2.70;;
59388;SDS011;51830;45.202;19.720;2023-01-30T03:07:15;10.38;;;3.42;;
59388;SDS011;51830;45.202;19.720;2023-01-30T03:14:41;8.88;;;3.35;;
59388;SDS011;51830;45.202;19.720;2023-01-30T03:17:07;11.27;;;3.33;;
59388;SDS011;51830;45.202;19.720;2023-01-30T03:19:34;11.07;;;4.25;;
59388;SDS011;51830;45.202;19.720;2023-01-30T03:22:00;8.52;;;3.58;;
59388;SDS011;51830;45.202;19.720;2023-01-30T03:24:27;14.55;;;3.45;;
59388;SDS011;51830;45.202;19.720;2023-01-30T03:26:55;12.55;;;4.00;;
59388;SDS011;51830;45.202;19.720;2023-01-30T03:29:23;10.85;;;3.60;;
59388;SDS011;51830;45.202;19.720;2023-01-30T03:31:49;9.05;;;2.90;;
59388;SDS011;51830;45.202;19.720;2023-01-30T03:34:15;8.13;;;2.75;;
59388;SDS011;51830;45.202;19.720;2023-01-30T03:36:42;12.27;;;3.53;;
59388;SDS011;51830;45.202;19.720;2023-01-30T03:39:08;9.35;;;3.20;;
59388;SDS011;51830;45.202;19.720;2023-01-30T03:41:34;9.95;;;3.53;;
59388;SDS011;51830;45.202;19.720;2023-01-30T03:44:00;10.60;;;3.17;;
59388;SDS011;51830;45.202;19.720;2023-01-30T03:46:26;11.15;;;4.20;;
59388;SDS011;51830;45.202;19.720;2023-01-30T03:48:52;12.40;;;3.67;;
59388;SDS011;51830;45.202;19.720;2023-01-30T03:51:18;6.40;;;2.50;;
59388;SDS011;51830;45.202;19.720;2023-01-30T03:53:45;9.00;;;3.00;;
59388;SDS011;51830;45.202;19.720;2023-01-30T03:56:11;12.38;;;3.17;;
59388;SDS011;51830;45.202;19.720;2023-01-30T03:58:37;22.00;;;5.28;;
59388;SDS011;51830;45.202;19.720;2023-01-30T04:01:04;18.75;;;6.30;;
59388;SDS011;51830;45.202;19.720;2023-01-30T04:03:31;8.05;;;3.28;;
59388;SDS011;51830;45.202;19.720;2023-01-30T04:05:57;9.13;;;3.30;;
59388;SDS011;51830;45.202;19.720;2023-01-30T04:08:24;8.93;;;3.03;;
59388;SDS011;51830;45.202;19.720;2023-01-30T04:10:50;28.85;;;11.40;;
59388;SDS011;51830;45.202;19.720;2023-01-30T04:13:16;18.13;;;7.20;;
59388;SDS011;51830;45.202;19.720;2023-01-30T04:15:42;15.63;;;4.70;;
59388;SDS011;51830;45.202;19.720;2023-01-30T04:18:09;11.43;;;4.47;;
59388;SDS011;51830;45.202;19.720;2023-01-30T04:20:35;13.77;;;4.15;;
59388;SDS011;51830;45.202;19.720;2023-01-30T04:23:01;13.63;;;4.50;;
59388;SDS011;51830;45.202;19.720;2023-01-30T04:25:28;12.98;;;4.53;;
59388;SDS011;51830;45.202;19.720;2023-01-30T04:27:54;13.55;;;4.22;;
59388;SDS011;51830;45.202;19.720;2023-01-30T04:30:20;14.75;;;4.25;;
59388;SDS011;51830;45.202;19.720;2023-01-30T04:32:46;13.95;;;4.95;;
59388;SDS011;51830;45.202;19.720;2023-01-30T04:35:12;13.23;;;4.70;;
59388;SDS011;51830;45.202;19.720;2023-01-30T04:37:39;14.68;;;4.95;;
59388;SDS011;51830;45.202;19.720;2023-01-30T04:40:05;12.55;;;4.50;;
59388;SDS011;51830;45.202;19.720;2023-01-30T04:42:32;17.08;;;6.30;;
59388;SDS011;51830;45.202;19.720;2023-01-30T04:44:58;19.30;;;8.65;;
59388;SDS011;51830;45.202;19.720;2023-01-30T04:47:24;13.40;;;4.53;;
59388;SDS011;51830;45.202;19.720;2023-01-30T04:49:50;14.25;;;4.88;;
59388;SDS011;51830;45.202;19.720;2023-01-30T04:52:16;13.63;;;4.60;;
59388;SDS011;51830;45.202;19.720;2023-01-30T04:54:43;12.85;;;4.28;;
59388;SDS011;51830;45.202;19.720;2023-01-30T04:57:09;9.85;;;3.47;;
59388;SDS011;51830;45.202;19.720;2023-01-30T04:59:35;10.55;;;3.40;;
59388;SDS011;51830;45.202;19.720;2023-01-30T05:02:01;9.07;;;4.13;;
59388;SDS011;51830;45.202;19.720;2023-01-30T05:04:28;15.98;;;4.65;;
59388;SDS011;51830;45.202;19.720;2023-01-30T05:06:54;14.00;;;4.13;;
59388;SDS011;51830;45.202;19.720;2023-01-30T05:09:20;10.15;;;3.58;;
59388;SDS011;51830;45.202;19.720;2023-01-30T05:11:46;12.40;;;3.47;;
59388;SDS011;51830;45.202;19.720;2023-01-30T05:14:13;15.10;;;4.57;;
59388;SDS011;51830;45.202;19.720;2023-01-30T05:16:39;11.60;;;4.18;;
59388;SDS011;51830;45.202;19.720;2023-01-30T05:19:05;23.27;;;9.25;;
59388;SDS011;51830;45.202;19.720;2023-01-30T05:21:31;35.22;;;13.68;;
59388;SDS011;51830;45.202;19.720;2023-01-30T05:23:58;23.85;;;11.13;;
59388;SDS011;51830;45.202;19.720;2023-01-30T05:26:24;22.35;;;6.70;;
59388;SDS011;51830;45.202;19.720;2023-01-30T05:28:54;17.25;;;6.57;;
59388;SDS011;51830;45.202;19.720;2023-01-30T05:31:20;20.25;;;8.25;;
59388;SDS011;51830;45.202;19.720;2023-01-30T05:33:47;13.88;;;4.40;;
59388;SDS011;51830;45.202;19.720;2023-01-30T05:36:15;10.95;;;3.38;;
59388;SDS011;51830;45.202;19.720;2023-01-30T05:38:41;8.07;;;3.28;;
59388;SDS011;51830;45.202;19.720;2023-01-30T05:41:08;16.60;;;5.47;;
59388;SDS011;51830;45.202;19.720;2023-01-30T05:43:35;8.18;;;3.10;;
59388;SDS011;51830;45.202;19.720;2023-01-30T05:46:01;9.05;;;3.47;;
59388;SDS011;51830;45.202;19.720;2023-01-30T05:48:28;12.93;;;2.75;;
59388;SDS011;51830;45.202;19.720;2023-01-30T05:50:56;10.93;;;3.45;;
59388;SDS011;51830;45.202;19.720;2023-01-30T05:53:23;9.93;;;3.88;;
59388;SDS011;51830;45.202;19.720;2023-01-30T05:55:59;10.45;;;3.00;;
59388;SDS011;51830;45.202;19.720;2023-01-30T05:58:25;11.35;;;3.38;;
59388;SDS011;51830;45.202;19.720;2023-01-30T06:00:52;9.98;;;3.55;;
59388;SDS011;51830;45.202;19.720;2023-01-30T06:03:18;12.25;;;4.68;;
59388;SDS011;51830;45.202;19.720;2023-01-30T06:05:45;13.02;;;4.28;;
59388;SDS011;51830;45.202;19.720;2023-01-30T06:08:11;12.45;;;3.72;;
59388;SDS011;51830;45.202;19.720;2023-01-30T06:10:37;14.05;;;5.18;;
59388;SDS011;51830;45.202;19.720;2023-01-30T06:13:04;10.13;;;4.15;;
59388;SDS011;51830;45.202;19.720;2023-01-30T06:15:30;14.60;;;4.68;;
59388;SDS011;51830;45.202;19.720;2023-01-30T06:17:56;11.60;;;3.83;;
59388;SDS011;51830;45.202;19.720;2023-01-30T06:20:22;15.48;;;4.63;;
59388;SDS011;51830;45.202;19.720;2023-01-30T06:22:49;13.40;;;4.45;;
59388;SDS011;51830;45.202;19.720;2023-01-30T06:25:15;12.95;;;5.40;;
59388;SDS011;51830;45.202;19.720;2023-01-30T06:27:41;9.73;;;3.90;;
59388;SDS011;51830;45.202;19.720;2023-01-30T06:30:08;9.65;;;3.45;;
59388;SDS011;51830;45.202;19.720;2023-01-30T06:32:34;13.38;;;4.35;;
59388;SDS011;51830;45.202;19.720;2023-01-30T06:35:00;10.63;;;2.65;;
59388;SDS011;51830;45.202;19.720;2023-01-30T06:37:27;27.95;;;8.73;;
59388;SDS011;51830;45.202;19.720;2023-01-30T06:39:53;67.65;;;24.02;;
59388;SDS011;51830;45.202;19.720;2023-01-30T06:42:19;58.92;;;23.50;;
59388;SDS011;51830;45.202;19.720;2023-01-30T06:44:45;113.82;;;42.40;;
59388;SDS011;51830;45.202;19.720;2023-01-30T06:47:12;152.77;;;58.63;;
59388;SDS011;51830;45.202;19.720;2023-01-30T06:49:38;77.70;;;37.15;;
59388;SDS011;51830;45.202;19.720;2023-01-30T06:52:04;54.13;;;26.00;;
59388;SDS011;51830;45.202;19.720;2023-01-30T06:54:30;55.03;;;18.25;;
59388;SDS011;51830;45.202;19.720;2023-01-30T06:56:57;25.67;;;9.85;;
59388;SDS011;51830;45.202;19.720;2023-01-30T06:59:23;22.55;;;10.63;;
59388;SDS011;51830;45.202;19.720;2023-01-30T07:01:49;13.68;;;4.57;;
59388;SDS011;51830;45.202;19.720;2023-01-30T07:04:15;15.73;;;4.47;;
59388;SDS011;51830;45.202;19.720;2023-01-30T07:06:41;23.33;;;9.02;;
59388;SDS011;51830;45.202;19.720;2023-01-30T07:09:08;16.15;;;6.55;;
59388;SDS011;51830;45.202;19.720;2023-01-30T07:11:34;17.30;;;5.90;;
59388;SDS011;51830;45.202;19.720;2023-01-30T07:14:00;14.43;;;5.32;;
59388;SDS011;51830;45.202;19.720;2023-01-30T07:16:26;15.98;;;4.13;;
59388;SDS011;51830;45.202;19.720;2023-01-30T07:18:54;15.40;;;5.68;;
59388;SDS011;51830;45.202;19.720;2023-01-30T07:21:23;14.98;;;4.72;;
59388;SDS011;51830;45.202;19.720;2023-01-30T07:23:49;20.08;;;7.47;;
59388;SDS011;51830;45.202;19.720;2023-01-30T07:26:15;20.38;;;7.25;;
59388;SDS011;51830;45.202;19.720;2023-01-30T07:28:41;11.60;;;4.93;;
59388;SDS011;51830;45.202;19.720;2023-01-30T07:31:08;13.57;;;4.75;;
59388;SDS011;51830;45.202;19.720;2023-01-30T07:33:34;13.30;;;4.80;;
59388;SDS011;51830;45.202;19.720;2023-01-30T07:36:00;9.10;;;3.90;;
59388;SDS011;51830;45.202;19.720;2023-01-30T07:38:26;13.80;;;4.63;;
59388;SDS011;51830;45.202;19.720;2023-01-30T07:40:53;14.35;;;5.70;;
59388;SDS011;51830;45.202;19.720;2023-01-30T07:43:21;13.63;;;4.78;;
59388;SDS011;51830;45.202;19.720;2023-01-30T07:45:48;11.55;;;4.20;;
59388;SDS011;51830;45.202;19.720;2023-01-30T07:48:15;9.95;;;3.78;;
59388;SDS011;51830;45.202;19.720;2023-01-30T07:50:42;15.35;;;5.40;;
59388;SDS011;51830;45.202;19.720;2023-01-30T07:53:09;12.15;;;4.22;;
59388;SDS011;51830;45.202;19.720;2023-01-30T07:55:36;16.02;;;5.68;;
59388;SDS011;51830;45.202;19.720;2023-01-30T07:58:02;14.38;;;5.40;;
59388;SDS011;51830;45.202;19.720;2023-01-30T08:00:29;15.38;;;4.85;;
59388;SDS011;51830;45.202;19.720;2023-01-30T08:02:55;8.60;;;2.80;;
59388;SDS011;51830;45.202;19.720;2023-01-30T08:05:21;13.63;;;4.25;;
59388;SDS011;51830;45.202;19.720;2023-01-30T08:07:47;15.60;;;5.20;;
59388;SDS011;51830;45.202;19.720;2023-01-30T08:10:14;21.30;;;5.35;;
59388;SDS011;51830;45.202;19.720;2023-01-30T08:12:40;18.38;;;5.35;;
59388;SDS011;51830;45.202;19.720;2023-01-30T08:15:07;25.83;;;8.98;;
59388;SDS011;51830;45.202;19.720;2023-01-30T08:17:33;21.20;;;9.40;;
59388;SDS011;51830;45.202;19.720;2023-01-30T08:19:59;23.33;;;9.60;;
59388;SDS011;51830;45.202;19.720;2023-01-30T08:22:27;31.27;;;11.05;;
59388;SDS011;51830;45.202;19.720;2023-01-30T08:24:53;15.52;;;5.43;;
59388;SDS011;51830;45.202;19.720;2023-01-30T08:27:19;11.35;;;3.65;;
59388;SDS011;51830;45.202;19.720;2023-01-30T08:29:45;10.57;;;3.47;;
59388;SDS011;51830;45.202;19.720;2023-01-30T08:32:11;18.95;;;7.45;;
59388;SDS011;51830;45.202;19.720;2023-01-30T08:34:38;33.58;;;13.80;;
59388;SDS011;51830;45.202;19.720;2023-01-30T08:37:04;38.55;;;13.52;;
59388;SDS011;51830;45.202;19.720;2023-01-30T08:39:30;28.20;;;11.38;;
59388;SDS011;51830;45.202;19.720;2023-01-30T08:41:56;99.20;;;38.05;;
59388;SDS011;51830;45.202;19.720;2023-01-30T08:44:23;31.70;;;11.55;;
59388;SDS011;51830;45.202;19.720;2023-01-30T08:46:49;17.67;;;7.47;;
59388;SDS011;51830;45.202;19.720;2023-01-30T08:49:15;39.83;;;15.32;;
59388;SDS011;51830;45.202;19.720;2023-01-30T08:51:41;51.85;;;21.70;;
59388;SDS011;51830;45.202;19.720;2023-01-30T08:54:07;26.45;;;9.40;;
59388;SDS011;51830;45.202;19.720;2023-01-30T08:56:33;32.67;;;12.95;;
59388;SDS011;51830;45.202;19.720;2023-01-30T08:59:00;13.63;;;5.10;;
59388;SDS011;51830;45.202;19.720;2023-01-30T09:01:26;11.15;;;4.30;;
59388;SDS011;51830;45.202;19.720;2023-01-30T09:03:52;13.65;;;4.43;;
59388;SDS011;51830;45.202;19.720;2023-01-30T09:06:18;20.85;;;7.05;;
59388;SDS011;51830;45.202;19.720;2023-01-30T09:08:44;10.05;;;3.58;;
59388;SDS011;51830;45.202;19.720;2023-01-30T09:11:11;11.38;;;3.95;;
59388;SDS011;51830;45.202;19.720;2023-01-30T09:13:37;14.02;;;5.07;;
59388;SDS011;51830;45.202;19.720;2023-01-30T09:16:07;13.30;;;4.53;;
59388;SDS011;51830;45.202;19.720;2023-01-30T09:18:36;13.20;;;3.55;;
59388;SDS011;51830;45.202;19.720;2023-01-30T09:21:03;15.65;;;5.40;;
59388;SDS011;51830;45.202;19.720;2023-01-30T09:23:29;12.82;;;4.03;;
59388;SDS011;51830;45.202;19.720;2023-01-30T09:25:56;12.95;;;4.03;;
59388;SDS011;51830;45.202;19.720;2023-01-30T09:28:22;14.13;;;5.25;;
59388;SDS011;51830;45.202;19.720;2023-01-30T09:30:48;14.55;;;3.67;;
59388;SDS011;51830;45.202;19.720;2023-01-30T09:33:14;11.50;;;4.32;;
59388;SDS011;51830;45.202;19.720;2023-01-30T09:35:47;11.30;;;4.00;;
59388;SDS011;51830;45.202;19.720;2023-01-30T09:38:14;14.43;;;4.32;;
59388;SDS011;51830;45.202;19.720;2023-01-30T09:40:49;13.95;;;4.03;;
59388;SDS011;51830;45.202;19.720;2023-01-30T09:46:10;14.57;;;5.30;;
59388;SDS011;51830;45.202;19.720;2023-01-30T09:51:14;8.48;;;3.00;;
59388;SDS011;51830;45.202;19.720;2023-01-30T09:53:51;7.28;;;3.05;;
59388;SDS011;51830;45.202;19.720;2023-01-30T09:56:21;8.40;;;2.53;;
59388;SDS011;51830;45.202;19.720;2023-01-30T09:58:48;6.05;;;2.50;;
59388;SDS011;51830;45.202;19.720;2023-01-30T10:02:00;8.18;;;3.20;;
59388;SDS011;51830;45.202;19.720;2023-01-30T10:04:40;5.15;;;1.98;;
59388;SDS011;51830;45.202;19.720;2023-01-30T10:12:06;8.88;;;3.13;;
59388;SDS011;51830;45.202;19.720;2023-01-30T10:27:29;11.15;;;3.40;;
59388;SDS011;51830;45.202;19.720;2023-01-30T10:29:58;7.70;;;2.50;;
59388;SDS011;51830;45.202;19.720;2023-01-30T10:34:57;10.73;;;3.28;;
59388;SDS011;51830;45.202;19.720;2023-01-30T10:42:20;11.25;;;3.15;;
59388;SDS011;51830;45.202;19.720;2023-01-30T10:44:48;12.77;;;3.95;;
59388;SDS011;51830;45.202;19.720;2023-01-30T10:47:21;11.23;;;3.88;;
59388;SDS011;51830;45.202;19.720;2023-01-30T10:49:53;9.82;;;3.20;;
59388;SDS011;51830;45.202;19.720;2023-01-30T10:52:26;16.85;;;3.67;;
59388;SDS011;51830;45.202;19.720;2023-01-30T10:55:05;17.88;;;4.70;;
59388;SDS011;51830;45.202;19.720;2023-01-30T10:57:38;16.05;;;5.20;;
59388;SDS011;51830;45.202;19.720;2023-01-30T11:00:19;13.60;;;4.25;;
59388;SDS011;51830;45.202;19.720;2023-01-30T11:02:55;14.93;;;4.75;;
59388;SDS011;51830;45.202;19.720;2023-01-30T11:05:24;14.35;;;4.25;;
59388;SDS011;51830;45.202;19.720;2023-01-30T11:07:51;13.15;;;3.65;;
59388;SDS011;51830;45.202;19.720;2023-01-30T11:10:18;12.70;;;4.28;;
59388;SDS011;51830;45.202;19.720;2023-01-30T11:12:45;20.10;;;5.80;;
59388;SDS011;51830;45.202;19.720;2023-01-30T11:15:11;25.02;;;6.88;;
59388;SDS011;51830;45.202;19.720;2023-01-30T11:17:38;15.80;;;6.00;;
59388;SDS011;51830;45.202;19.720;2023-01-30T11:20:21;18.75;;;6.72;;
59388;SDS011;51830;45.202;19.720;2023-01-30T11:25:16;24.15;;;10.57;;
59388;SDS011;51830;45.202;19.720;2023-01-30T11:27:43;17.35;;;5.55;;
59388;SDS011;51830;45.202;19.720;2023-01-30T11:30:16;15.80;;;4.88;;
59388;SDS011;51830;45.202;19.720;2023-01-30T11:32:44;26.50;;;10.50;;
59388;SDS011;51830;45.202;19.720;2023-01-30T11:37:43;19.52;;;7.13;;
59388;SDS011;51830;45.202;19.720;2023-01-30T11:42:45;18.83;;;6.23;;
59388;SDS011;51830;45.202;19.720;2023-01-30T11:45:12;22.85;;;8.48;;
59388;SDS011;51830;45.202;19.720;2023-01-30T11:47:38;19.50;;;6.00;;
59388;SDS011;51830;45.202;19.720;2023-01-30T11:52:37;16.60;;;5.03;;
59388;SDS011;51830;45.202;19.720;2023-01-30T11:55:05;18.48;;;5.53;;
59388;SDS011;51830;45.202;19.720;2023-01-30T11:57:46;15.02;;;5.85;;
59388;SDS011;51830;45.202;19.720;2023-01-30T12:00:15;11.52;;;4.18;;
59388;SDS011;51830;45.202;19.720;2023-01-30T12:02:42;14.50;;;4.45;;
59388;SDS011;51830;45.202;19.720;2023-01-30T12:05:23;19.25;;;6.15;;
59388;SDS011;51830;45.202;19.720;2023-01-30T12:07:51;18.42;;;7.28;;
59388;SDS011;51830;45.202;19.720;2023-01-30T12:12:50;24.88;;;7.55;;
59388;SDS011;51830;45.202;19.720;2023-01-30T12:18:04;19.95;;;5.07;;
59388;SDS011;51830;45.202;19.720;2023-01-30T12:23:10;12.82;;;4.38;;
59388;SDS011;51830;45.202;19.720;2023-01-30T12:25:38;16.98;;;5.15;;
59388;SDS011;51830;45.202;19.720;2023-01-30T12:33:00;18.13;;;4.90;;
59388;SDS011;51830;45.202;19.720;2023-01-30T12:36:12;16.70;;;5.72;;
59388;SDS011;51830;45.202;19.720;2023-01-30T12:38:22;17.52;;;6.18;;
59388;SDS011;51830;45.202;19.720;2023-01-30T12:43:40;17.50;;;5.47;;
59388;SDS011;51830;45.202;19.720;2023-01-30T12:49:02;28.30;;;8.70;;
59388;SDS011;51830;45.202;19.720;2023-01-30T12:56:49;16.25;;;5.85;;
59388;SDS011;51830;45.202;19.720;2023-01-30T12:59:38;24.77;;;7.90;;
59388;SDS011;51830;45.202;19.720;2023-01-30T13:07:45;24.10;;;7.30;;
59388;SDS011;51830;45.202;19.720;2023-01-30T13:10:30;20.27;;;6.65;;
59388;SDS011;51830;45.202;19.720;2023-01-30T13:13:17;27.50;;;13.13;;
59388;SDS011;51830;45.202;19.720;2023-01-30T13:18:14;23.13;;;7.68;;
59388;SDS011;51830;45.202;19.720;2023-01-30T13:23:58;32.15;;;16.00;;
59388;SDS011;51830;45.202;19.720;2023-01-30T13:28:26;28.00;;;10.65;;
59388;SDS011;51830;45.202;19.720;2023-01-30T13:30:53;18.05;;;6.30;;
59388;SDS011;51830;45.202;19.720;2023-01-30T13:33:21;19.55;;;7.15;;
59388;SDS011;51830;45.202;19.720;2023-01-30T13:36:09;27.88;;;9.55;;
59388;SDS011;51830;45.202;19.720;2023-01-30T13:38:37;18.77;;;7.15;;
59388;SDS011;51830;45.202;19.720;2023-01-30T13:41:05;18.95;;;6.72;;
59388;SDS011;51830;45.202;19.720;2023-01-30T13:43:33;21.58;;;7.78;;
59388;SDS011;51830;45.202;19.720;2023-01-30T13:46:02;29.08;;;12.23;;
59388;SDS011;51830;45.202;19.720;2023-01-30T13:48:41;22.52;;;11.10;;
59388;SDS011;51830;45.202;19.720;2023-01-30T13:51:35;21.13;;;7.80;;
59388;SDS011;51830;45.202;19.720;2023-01-30T13:56:36;22.60;;;8.95;;
59388;SDS011;51830;45.202;19.720;2023-01-30T14:17:26;21.13;;;6.78;;
59388;SDS011;51830;45.202;19.720;2023-01-30T14:22:30;18.38;;;6.55;;
59388;SDS011;51830;45.202;19.720;2023-01-30T14:27:42;17.23;;;6.10;;
59388;SDS011;51830;45.202;19.720;2023-01-30T14:32:54;16.17;;;6.63;;
59388;SDS011;51830;45.202;19.720;2023-01-30T14:35:22;20.55;;;6.32;;
59388;SDS011;51830;45.202;19.720;2023-01-30T14:37:49;18.00;;;6.50;;
59388;SDS011;51830;45.202;19.720;2023-01-30T14:46:05;20.70;;;6.32;;
59388;SDS011;51830;45.202;19.720;2023-01-30T14:48:27;17.77;;;6.15;;
59388;SDS011;51830;45.202;19.720;2023-01-30T14:53:55;21.65;;;7.22;;
59388;SDS011;51830;45.202;19.720;2023-01-30T14:56:45;23.23;;;9.13;;
59388;SDS011;51830;45.202;19.720;2023-01-30T14:59:54;22.92;;;7.03;;
59388;SDS011;51830;45.202;19.720;2023-01-30T15:01:55;23.45;;;9.07;;
59388;SDS011;51830;45.202;19.720;2023-01-30T15:04:22;27.42;;;10.65;;
59388;SDS011;51830;45.202;19.720;2023-01-30T15:06:49;26.38;;;8.65;;
59388;SDS011;51830;45.202;19.720;2023-01-30T15:09:16;21.48;;;8.48;;
59388;SDS011;51830;45.202;19.720;2023-01-30T15:11:42;23.00;;;7.93;;
59388;SDS011;51830;45.202;19.720;2023-01-30T15:14:28;26.73;;;9.60;;
59388;SDS011;51830;45.202;19.720;2023-01-30T15:19:40;25.48;;;8.98;;
59388;SDS011;51830;45.202;19.720;2023-01-30T15:33:20;17.00;;;5.32;;
59388;SDS011;51830;45.202;19.720;2023-01-30T15:35:47;18.60;;;5.68;;
59388;SDS011;51830;45.202;19.720;2023-01-30T15:38:21;18.02;;;5.55;;
59388;SDS011;51830;45.202;19.720;2023-01-30T15:40:49;17.52;;;5.88;;
59388;SDS011;51830;45.202;19.720;2023-01-30T15:50:55;13.75;;;4.60;;
59388;SDS011;51830;45.202;19.720;2023-01-30T15:53:27;18.98;;;6.45;;
59388;SDS011;51830;45.202;19.720;2023-01-30T15:55:55;30.67;;;10.05;;
59388;SDS011;51830;45.202;19.720;2023-01-30T15:58:21;38.20;;;14.73;;
59388;SDS011;51830;45.202;19.720;2023-01-30T16:00:58;31.40;;;9.52;;
59388;SDS011;51830;45.202;19.720;2023-01-30T16:03:27;36.38;;;12.25;;
59388;SDS011;51830;45.202;19.720;2023-01-30T16:05:55;31.90;;;13.00;;
59388;SDS011;51830;45.202;19.720;2023-01-30T16:08:26;32.45;;;15.13;;
59388;SDS011;51830;45.202;19.720;2023-01-30T16:10:52;37.38;;;16.83;;
59388;SDS011;51830;45.202;19.720;2023-01-30T16:13:19;31.25;;;13.38;;
59388;SDS011;51830;45.202;19.720;2023-01-30T16:16:00;29.42;;;12.18;;
59388;SDS011;51830;45.202;19.720;2023-01-30T16:18:30;39.53;;;15.98;;
59388;SDS011;51830;45.202;19.720;2023-01-30T16:20:57;33.10;;;13.35;;
59388;SDS011;51830;45.202;19.720;2023-01-30T16:23:29;35.80;;;15.05;;
59388;SDS011;51830;45.202;19.720;2023-01-30T16:25:59;24.35;;;12.30;;
59388;SDS011;51830;45.202;19.720;2023-01-30T16:28:26;36.90;;;14.00;;
59388;SDS011;51830;45.202;19.720;2023-01-30T16:30:56;24.35;;;10.60;;
59388;SDS011;51830;45.202;19.720;2023-01-30T16:33:23;23.52;;;9.70;;
59388;SDS011;51830;45.202;19.720;2023-01-30T16:35:49;30.17;;;11.68;;
59388;SDS011;51830;45.202;19.720;2023-01-30T16:38:49;39.95;;;15.02;;
59388;SDS011;51830;45.202;19.720;2023-01-30T16:44:07;43.20;;;16.98;;
59388;SDS011;51830;45.202;19.720;2023-01-30T16:51:44;27.55;;;9.85;;
59388;SDS011;51830;45.202;19.720;2023-01-30T16:54:21;29.52;;;13.27;;
59388;SDS011;51830;45.202;19.720;2023-01-30T16:56:49;35.45;;;10.75;;
59388;SDS011;51830;45.202;19.720;2023-01-30T16:59:17;22.60;;;8.80;;
59388;SDS011;51830;45.202;19.720;2023-01-30T17:01:44;20.52;;;9.00;;
59388;SDS011;51830;45.202;19.720;2023-01-30T17:04:21;22.33;;;11.73;;
59388;SDS011;51830;45.202;19.720;2023-01-30T17:06:49;29.75;;;12.93;;
59388;SDS011;51830;45.202;19.720;2023-01-30T17:09:36;24.63;;;10.00;;
59388;SDS011;51830;45.202;19.720;2023-01-30T17:12:45;27.23;;;8.80;;
59388;SDS011;51830;45.202;19.720;2023-01-30T17:17:36;27.10;;;10.73;;
59388;SDS011;51830;45.202;19.720;2023-01-30T17:20:03;28.73;;;9.57;;
59388;SDS011;51830;45.202;19.720;2023-01-30T17:22:29;28.15;;;10.63;;
59388;SDS011;51830;45.202;19.720;2023-01-30T17:25:06;28.75;;;12.00;;